*** Het weer in Zoersel & omstreken... Achter de schermen zijn we druk in de weer om deze website een grondige make-over te geven! Nog even geduld dus! ***

*** BELANGRIJK BERICHT 03/06/2019: Vanwege een storing bij Weather Underground, werken de realtime grafieken en weerrapporten voor onbepaalde duur niet meer. Er wordt naar een oplossing gezocht! ***


Weerstation Zoersel Live Webcam Weerstation Zoersel Live Webcam


sateliet wolkenradar  


Doneren

CBI


onweer radar meer informatie blitzortung!


regen radar  rain snow radar


Enkele sfeerfotootjes...  

Het weer levert geen direct gevaar op.    Er zijn geen waarschuwingen afgegeven.

metar rapporten vliegvelden

   
EBAW - Antwerp
gewijzigd: 24-08-2019 20:20
helder  
helder  
   wind: oosten 3,7 km/h
wind: oosten 3,7 km/h
temperatuur: 27°C
gevoelstemperatuur: 27°C
dauwpunt: 14°C
vochtigheid: 45%
barometer: 1018 hPa
zicht: meer dan 10 km
bewolking: helder
EBAW 241820Z 09002KT CAVOK 27/14 Q1018 NOSIG
EBLG - Li├Ęge
gewijzigd: 24-08-2019 20:20
helder  
helder  
   wind: nno 7,4 km/h
wind: nno 7,4 km/h
temperatuur: 25°C
dauwpunt: 12°C
vochtigheid: 44%
barometer: 1018 hPa
zicht: meer dan 10 km
bewolking: helder
EBLG 241820Z 03004KT CAVOK 25/12 Q1018 NOSIG
EBCV - Mons/Bergen
gewijzigd: 24-08-2019 20:25
helder  
helder  
   wind: varieert 1,9 km/h
wind: varieert 1,9 km/h
temperatuur: 25°C
dauwpunt: 17°C
vochtigheid: 61%
barometer: 1018 hPa
bewolking: helder
zicht: meer dan 10 km
bewolking: helder
EBCV 241825Z AUTO VRB01KT 9999 NCD 25/17 Q1018 BLU
EHBK - Maastricht
gewijzigd: 24-08-2019 20:25
helder  
helder  
   wind: ono 9,3 km/h
wind: ono 9,3 km/h
temperatuur: 25°C
dauwpunt: 11°C
vochtigheid: 42%
barometer: 1018 hPa
bewolking: helder
zicht: meer dan 10 km
bewolking: helder
EHBK 241825Z AUTO 07005KT 9999 NCD 25/11 Q1018 NOSIG
ELLX - Luxemburg
gewijzigd: 24-08-2019 20:20
helder  
helder  
   wind: ozo 5,6 km/h
wind: ozo 5,6 km/h
temperatuur: 26°C
dauwpunt: 11°C
vochtigheid: 39%
barometer: 1019 hPa
zicht: meer dan 10 km
bewolking: helder
ELLX 241820Z 12003KT 090V150 CAVOK 26/11 Q1019 NOSIG
EBOS - Oostende
gewijzigd: 24-08-2019 20:20
helder  
helder  
   wind: no 9,3 km/h
wind: no 9,3 km/h
temperatuur: 22°C
dauwpunt: 16°C
vochtigheid: 69%
barometer: 1018 hPa
zicht: meer dan 10 km
bewolking: helder
EBOS 241820Z 04005KT CAVOK 22/16 Q1018 NOSIG

script ontwikkeld door  Saratoga-weather.org aangepast voor de template door  Weerstation Leuven